sensor_id;sensor_type;location;lat;lon;timestamp;pressure;altitude;pressure_sealevel;temperature;humidity
65054;BME280;51639;47.828;35.038;2023-07-20T00:05:26;99765.38;;;24.97;64.48
65054;BME280;51639;47.828;35.038;2023-07-20T00:20:28;99751.84;;;24.69;66.22
65054;BME280;51639;47.828;35.038;2023-07-20T00:35:30;99759.75;;;24.59;67.06
65054;BME280;51639;47.828;35.038;2023-07-20T00:50:33;99733.75;;;24.62;67.93
65054;BME280;51639;47.828;35.038;2023-07-20T01:05:58;99728.75;;;24.79;67.97
65054;BME280;51639;47.828;35.038;2023-07-20T01:21:07;99723.78;;;24.72;67.22
65054;BME280;51639;47.828;35.038;2023-07-20T01:36:10;99717.25;;;24.70;66.81
65054;BME280;51639;47.828;35.038;2023-07-20T01:51:12;99716.88;;;24.60;67.13
65054;BME280;51639;47.828;35.038;2023-07-20T02:06:14;99713.81;;;24.21;69.45
65054;BME280;51639;47.828;35.038;2023-07-20T02:21:16;99730.44;;;24.21;71.26
65054;BME280;51639;47.828;35.038;2023-07-20T02:36:18;99741.81;;;24.17;71.38
65054;BME280;51639;47.828;35.038;2023-07-20T02:51:21;99741.44;;;24.32;72.40
65054;BME280;51639;47.828;35.038;2023-07-20T03:06:23;99753.94;;;24.63;72.44
65054;BME280;51639;47.828;35.038;2023-07-20T03:21:26;99743.97;;;24.73;74.60
65054;BME280;51639;47.828;35.038;2023-07-20T03:36:28;99724.91;;;24.82;76.49
65054;BME280;51639;47.828;35.038;2023-07-20T03:51:30;99731.19;;;25.53;80.52
65054;BME280;51639;47.828;35.038;2023-07-20T04:06:32;99742.19;;;25.90;84.55
65054;BME280;51639;47.828;35.038;2023-07-20T04:21:39;99738.16;;;26.17;89.96
65054;BME280;51639;47.828;35.038;2023-07-20T04:36:42;99744.09;;;25.69;100.00
65054;BME280;51639;47.828;35.038;2023-07-20T04:51:45;99727.19;;;25.80;100.00
65054;BME280;51639;47.828;35.038;2023-07-20T05:06:47;99686.34;;;26.01;100.00
65054;BME280;51639;47.828;35.038;2023-07-20T05:21:49;99609.59;;;25.98;100.00
65054;BME280;51639;47.828;35.038;2023-07-20T05:36:51;99568.69;;;26.20;100.00
65054;BME280;51639;47.828;35.038;2023-07-20T05:51:56;99547.16;;;26.96;100.00
65054;BME280;51639;47.828;35.038;2023-07-20T06:06:58;99527.53;;;27.30;100.00
65054;BME280;51639;47.828;35.038;2023-07-20T06:22:00;99511.03;;;27.32;100.00
65054;BME280;51639;47.828;35.038;2023-07-20T06:37:03;99529.22;;;28.12;100.00
65054;BME280;51639;47.828;35.038;2023-07-20T06:52:07;99534.22;;;28.96;100.00
65054;BME280;51639;47.828;35.038;2023-07-20T07:07:09;99514.81;;;28.60;100.00
65054;BME280;51639;47.828;35.038;2023-07-20T07:22:11;99556.31;;;29.55;100.00
65054;BME280;51639;47.828;35.038;2023-07-20T07:37:13;99622.25;;;30.36;100.00
65054;BME280;51639;47.828;35.038;2023-07-20T07:52:15;99606.59;;;30.33;100.00
65054;BME280;51639;47.828;35.038;2023-07-20T08:07:18;99622.13;;;30.66;100.00
65054;BME280;51639;47.828;35.038;2023-07-20T08:22:20;99660.97;;;31.19;100.00
65054;BME280;51639;47.828;35.038;2023-07-20T08:37:22;99683.53;;;31.29;100.00
65054;BME280;51639;47.828;35.038;2023-07-20T08:52:24;99698.91;;;31.45;97.16
65054;BME280;51639;47.828;35.038;2023-07-20T09:07:26;99709.72;;;31.74;92.58
65054;BME280;51639;47.828;35.038;2023-07-20T09:22:30;99734.50;;;32.02;80.94
65054;BME280;51639;47.828;35.038;2023-07-20T09:37:34;99749.66;;;31.82;79.83
65054;BME280;51639;47.828;35.038;2023-07-20T09:52:40;99742.25;;;30.47;95.68
65054;BME280;51639;47.828;35.038;2023-07-20T10:07:50;99736.56;;;29.38;100.00
65054;BME280;51639;47.828;35.038;2023-07-20T10:23:14;99757.63;;;28.08;100.00
65054;BME280;51639;47.828;35.038;2023-07-20T10:38:17;99681.13;;;27.26;100.00
65054;BME280;51639;47.828;35.038;2023-07-20T10:53:18;99644.09;;;27.60;100.00
65054;BME280;51639;47.828;35.038;2023-07-20T11:08:45;99605.34;;;27.77;100.00
65054;BME280;51639;47.828;35.038;2023-07-20T11:23:52;99563.00;;;28.30;100.00
65054;BME280;51639;47.828;35.038;2023-07-20T11:38:58;99553.03;;;28.88;100.00
65054;BME280;51639;47.828;35.038;2023-07-20T11:54:02;99557.53;;;29.76;100.00
65054;BME280;51639;47.828;35.038;2023-07-20T12:09:04;99549.41;;;30.11;100.00
65054;BME280;51639;47.828;35.038;2023-07-20T12:24:07;99553.13;;;30.46;100.00
65054;BME280;51639;47.828;35.038;2023-07-20T12:39:11;99563.00;;;30.22;100.00
65054;BME280;51639;47.828;35.038;2023-07-20T12:54:33;99571.69;;;29.86;100.00
65054;BME280;51639;47.828;35.038;2023-07-20T13:09:35;99632.91;;;29.67;100.00
65054;BME280;51639;47.828;35.038;2023-07-20T13:24:38;99604.84;;;30.05;100.00
65054;BME280;51639;47.828;35.038;2023-07-20T13:39:40;99610.09;;;29.93;100.00
65054;BME280;51639;47.828;35.038;2023-07-20T13:54:42;99614.09;;;29.29;100.00
65054;BME280;51639;47.828;35.038;2023-07-20T14:09:47;99581.16;;;28.90;100.00
65054;BME280;51639;47.828;35.038;2023-07-20T14:24:53;99578.91;;;29.11;100.00
65054;BME280;51639;47.828;35.038;2023-07-20T14:39:55;99571.47;;;29.13;100.00
65054;BME280;51639;47.828;35.038;2023-07-20T14:54:57;99565.88;;;29.21;100.00
65054;BME280;51639;47.828;35.038;2023-07-20T15:09:59;99563.06;;;29.51;100.00
65054;BME280;51639;47.828;35.038;2023-07-20T15:25:05;99523.00;;;29.41;100.00
65054;BME280;51639;47.828;35.038;2023-07-20T15:40:09;99539.03;;;29.41;100.00
65054;BME280;51639;47.828;35.038;2023-07-20T15:55:11;99546.66;;;29.48;100.00
65054;BME280;51639;47.828;35.038;2023-07-20T16:10:14;99530.84;;;29.20;100.00
65054;BME280;51639;47.828;35.038;2023-07-20T16:25:16;99517.06;;;29.07;100.00
65054;BME280;51639;47.828;35.038;2023-07-20T16:40:18;99532.38;;;28.98;100.00
65054;BME280;51639;47.828;35.038;2023-07-20T16:55:23;99525.28;;;28.90;100.00
65054;BME280;51639;47.828;35.038;2023-07-20T17:10:25;99507.38;;;28.70;100.00
65054;BME280;51639;47.828;35.038;2023-07-20T17:25:29;99489.69;;;28.67;100.00
65054;BME280;51639;47.828;35.038;2023-07-20T17:40:32;99481.53;;;28.54;100.00
65054;BME280;51639;47.828;35.038;2023-07-20T17:55:37;99464.38;;;28.50;100.00
65054;BME280;51639;47.828;35.038;2023-07-20T18:10:39;99485.59;;;28.45;100.00
65054;BME280;51639;47.828;35.038;2023-07-20T18:25:42;99486.53;;;28.33;100.00
65054;BME280;51639;47.828;35.038;2023-07-20T18:40:44;99460.13;;;28.34;100.00
65054;BME280;51639;47.828;35.038;2023-07-20T18:55:46;99491.72;;;28.36;100.00
65054;BME280;51639;47.828;35.038;2023-07-20T19:10:48;99472.00;;;28.27;100.00
65054;BME280;51639;47.828;35.038;2023-07-20T19:25:53;99451.84;;;28.13;100.00
65054;BME280;51639;47.828;35.038;2023-07-20T19:40:56;99422.44;;;27.89;100.00
65054;BME280;51639;47.828;35.038;2023-07-20T19:56:00;99410.88;;;27.70;100.00
65054;BME280;51639;47.828;35.038;2023-07-20T20:11:02;99375.53;;;27.65;100.00
65054;BME280;51639;47.828;35.038;2023-07-20T20:26:07;99382.59;;;27.66;100.00
65054;BME280;51639;47.828;35.038;2023-07-20T20:41:09;99372.94;;;27.67;100.00
65054;BME280;51639;47.828;35.038;2023-07-20T20:56:12;99364.69;;;27.38;100.00
65054;BME280;51639;47.828;35.038;2023-07-20T21:11:14;99273.66;;;26.54;100.00
65054;BME280;51639;47.828;35.038;2023-07-20T21:26:16;99166.63;;;25.62;100.00
65054;BME280;51639;47.828;35.038;2023-07-20T21:41:18;99125.97;;;25.72;100.00
65054;BME280;51639;47.828;35.038;2023-07-20T21:56:20;99090.72;;;25.67;100.00
65054;BME280;51639;47.828;35.038;2023-07-20T22:11:22;99101.44;;;25.63;100.00
65054;BME280;51639;47.828;35.038;2023-07-20T22:26:25;99115.22;;;25.76;100.00
65054;BME280;51639;47.828;35.038;2023-07-20T22:41:27;99076.13;;;25.45;100.00
65054;BME280;51639;47.828;35.038;2023-07-20T22:56:29;99083.16;;;25.46;100.00
65054;BME280;51639;47.828;35.038;2023-07-20T23:11:32;99125.41;;;25.53;100.00
65054;BME280;51639;47.828;35.038;2023-07-20T23:26:35;99124.78;;;25.39;100.00
65054;BME280;51639;47.828;35.038;2023-07-20T23:41:38;99127.00;;;25.40;100.00
65054;BME280;51639;47.828;35.038;2023-07-20T23:56:39;99120.97;;;25.70;100.00
